sensor_id;sensor_type;location;lat;lon;timestamp;temperature;humidity
16666;DHT22;8446;50.998;6.250;2022-08-01T00:01:11;19.10;99.90
16666;DHT22;8446;50.998;6.250;2022-08-01T00:03:38;19.10;99.90
16666;DHT22;8446;50.998;6.250;2022-08-01T00:06:05;19.10;99.90
16666;DHT22;8446;50.998;6.250;2022-08-01T00:08:32;19.10;99.90
16666;DHT22;8446;50.998;6.250;2022-08-01T00:10:59;19.10;99.90
16666;DHT22;8446;50.998;6.250;2022-08-01T00:13:27;19.10;99.90
16666;DHT22;8446;50.998;6.250;2022-08-01T00:15:54;19.10;99.90
16666;DHT22;8446;50.998;6.250;2022-08-01T00:18:21;19.10;99.90
16666;DHT22;8446;50.998;6.250;2022-08-01T00:20:48;19.00;99.90
16666;DHT22;8446;50.998;6.250;2022-08-01T00:23:14;19.00;99.90
16666;DHT22;8446;50.998;6.250;2022-08-01T00:25:41;19.00;99.90
16666;DHT22;8446;50.998;6.250;2022-08-01T00:28:08;19.00;99.90
16666;DHT22;8446;50.998;6.250;2022-08-01T00:30:36;19.00;99.90
16666;DHT22;8446;50.998;6.250;2022-08-01T00:33:03;19.00;99.90
16666;DHT22;8446;50.998;6.250;2022-08-01T00:35:30;19.00;99.90
16666;DHT22;8446;50.998;6.250;2022-08-01T00:37:57;19.00;99.90
16666;DHT22;8446;50.998;6.250;2022-08-01T00:40:23;19.00;99.90
16666;DHT22;8446;50.998;6.250;2022-08-01T00:42:50;19.00;99.90
16666;DHT22;8446;50.998;6.250;2022-08-01T00:45:17;18.90;99.90
16666;DHT22;8446;50.998;6.250;2022-08-01T00:47:45;18.90;99.90
16666;DHT22;8446;50.998;6.250;2022-08-01T00:50:12;19.00;99.90
16666;DHT22;8446;50.998;6.250;2022-08-01T00:52:39;19.00;99.90
16666;DHT22;8446;50.998;6.250;2022-08-01T00:55:08;19.00;99.90
16666;DHT22;8446;50.998;6.250;2022-08-01T00:57:35;19.00;99.90
16666;DHT22;8446;50.998;6.250;2022-08-01T01:00:03;19.00;99.90
16666;DHT22;8446;50.998;6.250;2022-08-01T01:02:31;19.00;99.90
16666;DHT22;8446;50.998;6.250;2022-08-01T01:04:59;19.00;99.90
16666;DHT22;8446;50.998;6.250;2022-08-01T01:07:31;19.00;99.90
16666;DHT22;8446;50.998;6.250;2022-08-01T01:10:02;19.00;99.90
16666;DHT22;8446;50.998;6.250;2022-08-01T01:12:33;19.00;99.90
16666;DHT22;8446;50.998;6.250;2022-08-01T01:15:06;19.00;99.90
16666;DHT22;8446;50.998;6.250;2022-08-01T01:17:38;19.00;99.90
16666;DHT22;8446;50.998;6.250;2022-08-01T01:20:08;19.00;99.90
16666;DHT22;8446;50.998;6.250;2022-08-01T01:22:47;19.00;99.90
16666;DHT22;8446;50.998;6.250;2022-08-01T01:25:26;19.00;99.90
16666;DHT22;8446;50.998;6.250;2022-08-01T01:28:02;19.00;99.90
16666;DHT22;8446;50.998;6.250;2022-08-01T01:30:35;19.00;99.90
16666;DHT22;8446;50.998;6.250;2022-08-01T01:33:06;19.00;99.90
16666;DHT22;8446;50.998;6.250;2022-08-01T01:35:36;19.00;99.90
16666;DHT22;8446;50.998;6.250;2022-08-01T01:38:08;19.00;99.90
16666;DHT22;8446;50.998;6.250;2022-08-01T01:40:37;19.00;99.90
16666;DHT22;8446;50.998;6.250;2022-08-01T01:43:05;19.00;99.90
16666;DHT22;8446;50.998;6.250;2022-08-01T01:45:34;19.00;99.90
16666;DHT22;8446;50.998;6.250;2022-08-01T01:48:03;19.00;99.90
16666;DHT22;8446;50.998;6.250;2022-08-01T01:50:30;19.00;99.90
16666;DHT22;8446;50.998;6.250;2022-08-01T01:52:59;19.10;99.90
16666;DHT22;8446;50.998;6.250;2022-08-01T01:55:28;19.10;99.90
16666;DHT22;8446;50.998;6.250;2022-08-01T01:57:56;19.10;99.90
16666;DHT22;8446;50.998;6.250;2022-08-01T02:00:24;19.10;99.90
16666;DHT22;8446;50.998;6.250;2022-08-01T02:02:54;19.10;99.90
16666;DHT22;8446;50.998;6.250;2022-08-01T02:05:22;19.10;99.90
16666;DHT22;8446;50.998;6.250;2022-08-01T02:07:50;19.10;99.90
16666;DHT22;8446;50.998;6.250;2022-08-01T02:10:19;19.10;99.90
16666;DHT22;8446;50.998;6.250;2022-08-01T02:12:47;19.10;99.90
16666;DHT22;8446;50.998;6.250;2022-08-01T02:15:16;19.10;99.90
16666;DHT22;8446;50.998;6.250;2022-08-01T02:17:46;19.10;99.90
16666;DHT22;8446;50.998;6.250;2022-08-01T02:20:16;19.10;99.90
16666;DHT22;8446;50.998;6.250;2022-08-01T02:22:46;19.10;99.90
16666;DHT22;8446;50.998;6.250;2022-08-01T02:25:19;19.10;99.90
16666;DHT22;8446;50.998;6.250;2022-08-01T02:27:51;19.20;99.90
16666;DHT22;8446;50.998;6.250;2022-08-01T02:30:21;19.20;99.90
16666;DHT22;8446;50.998;6.250;2022-08-01T02:32:53;19.30;99.90
16666;DHT22;8446;50.998;6.250;2022-08-01T02:35:28;19.20;99.90
16666;DHT22;8446;50.998;6.250;2022-08-01T02:37:57;19.20;99.90
16666;DHT22;8446;50.998;6.250;2022-08-01T02:40:26;19.20;99.90
16666;DHT22;8446;50.998;6.250;2022-08-01T02:42:55;19.20;99.90
16666;DHT22;8446;50.998;6.250;2022-08-01T02:45:25;19.20;99.90
16666;DHT22;8446;50.998;6.250;2022-08-01T02:47:55;19.30;99.90
16666;DHT22;8446;50.998;6.250;2022-08-01T02:50:26;19.30;99.90
16666;DHT22;8446;50.998;6.250;2022-08-01T02:52:54;19.20;99.90
16666;DHT22;8446;50.998;6.250;2022-08-01T02:55:21;19.20;99.90
16666;DHT22;8446;50.998;6.250;2022-08-01T02:57:49;19.20;99.90
16666;DHT22;8446;50.998;6.250;2022-08-01T03:00:18;19.20;99.90
16666;DHT22;8446;50.998;6.250;2022-08-01T03:02:46;19.20;99.90
16666;DHT22;8446;50.998;6.250;2022-08-01T03:05:17;19.20;99.90
16666;DHT22;8446;50.998;6.250;2022-08-01T03:07:45;19.20;99.90
16666;DHT22;8446;50.998;6.250;2022-08-01T03:10:14;19.20;99.90
16666;DHT22;8446;50.998;6.250;2022-08-01T03:12:43;19.20;99.90
16666;DHT22;8446;50.998;6.250;2022-08-01T03:15:12;19.20;99.90
16666;DHT22;8446;50.998;6.250;2022-08-01T03:17:41;19.20;99.90
16666;DHT22;8446;50.998;6.250;2022-08-01T03:20:11;19.10;99.90
16666;DHT22;8446;50.998;6.250;2022-08-01T03:22:39;19.20;99.90
16666;DHT22;8446;50.998;6.250;2022-08-01T03:25:09;19.20;99.90
16666;DHT22;8446;50.998;6.250;2022-08-01T03:27:37;19.20;99.90
16666;DHT22;8446;50.998;6.250;2022-08-01T03:30:07;19.20;99.90
16666;DHT22;8446;50.998;6.250;2022-08-01T03:32:34;19.20;99.90
16666;DHT22;8446;50.998;6.250;2022-08-01T03:35:01;19.20;99.90
16666;DHT22;8446;50.998;6.250;2022-08-01T03:37:36;19.20;99.90
16666;DHT22;8446;50.998;6.250;2022-08-01T03:40:08;19.20;99.90
16666;DHT22;8446;50.998;6.250;2022-08-01T03:42:37;19.20;99.90
16666;DHT22;8446;50.998;6.250;2022-08-01T03:45:08;19.20;99.90
16666;DHT22;8446;50.998;6.250;2022-08-01T03:47:36;19.20;99.90
16666;DHT22;8446;50.998;6.250;2022-08-01T03:50:05;19.20;99.90
16666;DHT22;8446;50.998;6.250;2022-08-01T03:52:34;19.20;99.90
16666;DHT22;8446;50.998;6.250;2022-08-01T03:55:05;19.20;99.90
16666;DHT22;8446;50.998;6.250;2022-08-01T03:57:34;19.20;99.90
16666;DHT22;8446;50.998;6.250;2022-08-01T04:00:03;19.20;99.90
16666;DHT22;8446;50.998;6.250;2022-08-01T04:02:32;19.20;99.90
16666;DHT22;8446;50.998;6.250;2022-08-01T04:05:00;19.20;99.90
16666;DHT22;8446;50.998;6.250;2022-08-01T04:07:29;19.20;99.90
16666;DHT22;8446;50.998;6.250;2022-08-01T04:09:56;19.20;99.90
16666;DHT22;8446;50.998;6.250;2022-08-01T04:12:23;19.20;99.90
16666;DHT22;8446;50.998;6.250;2022-08-01T04:14:51;19.20;99.90
16666;DHT22;8446;50.998;6.250;2022-08-01T04:17:18;19.20;99.90
16666;DHT22;8446;50.998;6.250;2022-08-01T04:19:45;19.20;99.90
16666;DHT22;8446;50.998;6.250;2022-08-01T04:22:14;19.20;99.90
16666;DHT22;8446;50.998;6.250;2022-08-01T04:24:42;19.20;99.90
16666;DHT22;8446;50.998;6.250;2022-08-01T04:27:22;19.20;99.90
16666;DHT22;8446;50.998;6.250;2022-08-01T04:29:53;19.10;99.90
16666;DHT22;8446;50.998;6.250;2022-08-01T04:32:21;19.20;99.90
16666;DHT22;8446;50.998;6.250;2022-08-01T04:34:49;19.20;99.90
16666;DHT22;8446;50.998;6.250;2022-08-01T04:37:18;19.20;99.90
16666;DHT22;8446;50.998;6.250;2022-08-01T04:39:46;19.20;99.90
16666;DHT22;8446;50.998;6.250;2022-08-01T04:42:14;19.20;99.90
16666;DHT22;8446;50.998;6.250;2022-08-01T04:44:41;19.20;99.90
16666;DHT22;8446;50.998;6.250;2022-08-01T04:47:10;19.10;99.90
16666;DHT22;8446;50.998;6.250;2022-08-01T04:49:38;19.10;99.90
16666;DHT22;8446;50.998;6.250;2022-08-01T04:52:06;19.10;99.90
16666;DHT22;8446;50.998;6.250;2022-08-01T04:54:34;19.20;99.90
16666;DHT22;8446;50.998;6.250;2022-08-01T04:57:04;19.10;99.90
16666;DHT22;8446;50.998;6.250;2022-08-01T04:59:32;19.00;99.90
16666;DHT22;8446;50.998;6.250;2022-08-01T05:02:10;18.90;99.90
16666;DHT22;8446;50.998;6.250;2022-08-01T05:04:38;18.70;99.90
16666;DHT22;8446;50.998;6.250;2022-08-01T05:07:05;18.70;99.90
16666;DHT22;8446;50.998;6.250;2022-08-01T05:09:33;18.60;99.90
16666;DHT22;8446;50.998;6.250;2022-08-01T05:12:02;18.60;99.90
16666;DHT22;8446;50.998;6.250;2022-08-01T05:14:30;18.60;99.90
16666;DHT22;8446;50.998;6.250;2022-08-01T05:16:58;18.60;99.90
16666;DHT22;8446;50.998;6.250;2022-08-01T05:19:30;18.50;99.90
16666;DHT22;8446;50.998;6.250;2022-08-01T05:21:57;18.40;99.90
16666;DHT22;8446;50.998;6.250;2022-08-01T05:24:26;18.40;99.90
16666;DHT22;8446;50.998;6.250;2022-08-01T05:26:53;18.40;99.90
16666;DHT22;8446;50.998;6.250;2022-08-01T05:29:20;18.40;99.90
16666;DHT22;8446;50.998;6.250;2022-08-01T05:31:47;18.50;99.90
16666;DHT22;8446;50.998;6.250;2022-08-01T05:34:14;18.40;99.90
16666;DHT22;8446;50.998;6.250;2022-08-01T05:36:42;18.40;99.90
16666;DHT22;8446;50.998;6.250;2022-08-01T05:39:09;18.40;99.90
16666;DHT22;8446;50.998;6.250;2022-08-01T05:41:36;18.40;99.90
16666;DHT22;8446;50.998;6.250;2022-08-01T05:44:03;18.40;99.90
16666;DHT22;8446;50.998;6.250;2022-08-01T05:46:30;18.50;99.90
16666;DHT22;8446;50.998;6.250;2022-08-01T05:48:57;18.50;99.90
16666;DHT22;8446;50.998;6.250;2022-08-01T05:51:25;18.60;99.90
16666;DHT22;8446;50.998;6.250;2022-08-01T05:53:53;18.70;99.90
16666;DHT22;8446;50.998;6.250;2022-08-01T05:56:21;18.70;99.90
16666;DHT22;8446;50.998;6.250;2022-08-01T05:58:48;18.60;99.90
16666;DHT22;8446;50.998;6.250;2022-08-01T06:01:15;18.70;99.90
16666;DHT22;8446;50.998;6.250;2022-08-01T06:03:42;18.60;99.90
16666;DHT22;8446;50.998;6.250;2022-08-01T06:06:09;18.70;99.90
16666;DHT22;8446;50.998;6.250;2022-08-01T06:08:35;18.70;99.90
16666;DHT22;8446;50.998;6.250;2022-08-01T06:11:04;18.80;99.90
16666;DHT22;8446;50.998;6.250;2022-08-01T06:13:31;18.70;99.90
16666;DHT22;8446;50.998;6.250;2022-08-01T06:15:58;18.70;99.90
16666;DHT22;8446;50.998;6.250;2022-08-01T06:18:25;18.80;99.90
16666;DHT22;8446;50.998;6.250;2022-08-01T06:20:53;18.90;99.90
16666;DHT22;8446;50.998;6.250;2022-08-01T06:23:20;18.90;99.90
16666;DHT22;8446;50.998;6.250;2022-08-01T06:25:47;18.90;99.90
16666;DHT22;8446;50.998;6.250;2022-08-01T06:28:15;18.90;99.90
16666;DHT22;8446;50.998;6.250;2022-08-01T06:30:42;19.00;99.90
16666;DHT22;8446;50.998;6.250;2022-08-01T06:33:09;19.10;99.90
16666;DHT22;8446;50.998;6.250;2022-08-01T06:35:36;19.20;99.90
16666;DHT22;8446;50.998;6.250;2022-08-01T06:38:03;19.00;99.90
16666;DHT22;8446;50.998;6.250;2022-08-01T06:40:29;19.20;99.90
16666;DHT22;8446;50.998;6.250;2022-08-01T06:42:56;19.30;99.90
16666;DHT22;8446;50.998;6.250;2022-08-01T06:45:24;19.20;99.90
16666;DHT22;8446;50.998;6.250;2022-08-01T06:47:52;19.20;99.90
16666;DHT22;8446;50.998;6.250;2022-08-01T06:50:19;19.30;99.90
16666;DHT22;8446;50.998;6.250;2022-08-01T06:52:46;19.40;99.90
16666;DHT22;8446;50.998;6.250;2022-08-01T06:55:13;19.40;99.90
16666;DHT22;8446;50.998;6.250;2022-08-01T06:57:47;19.40;99.90
16666;DHT22;8446;50.998;6.250;2022-08-01T07:00:15;19.50;99.90
16666;DHT22;8446;50.998;6.250;2022-08-01T07:02:45;19.50;99.90
16666;DHT22;8446;50.998;6.250;2022-08-01T07:05:12;19.50;99.90
16666;DHT22;8446;50.998;6.250;2022-08-01T07:07:39;19.50;99.90
16666;DHT22;8446;50.998;6.250;2022-08-01T07:10:06;19.60;99.90
16666;DHT22;8446;50.998;6.250;2022-08-01T07:12:34;19.60;99.90
16666;DHT22;8446;50.998;6.250;2022-08-01T07:15:02;19.50;99.90
16666;DHT22;8446;50.998;6.250;2022-08-01T07:17:29;19.50;99.90
16666;DHT22;8446;50.998;6.250;2022-08-01T07:19:57;19.60;99.90
16666;DHT22;8446;50.998;6.250;2022-08-01T07:22:24;19.70;99.90
16666;DHT22;8446;50.998;6.250;2022-08-01T07:24:51;19.80;99.90
16666;DHT22;8446;50.998;6.250;2022-08-01T07:27:17;19.80;99.90
16666;DHT22;8446;50.998;6.250;2022-08-01T07:29:44;20.10;99.90
16666;DHT22;8446;50.998;6.250;2022-08-01T07:32:11;20.00;99.90
16666;DHT22;8446;50.998;6.250;2022-08-01T07:34:38;20.00;99.90
16666;DHT22;8446;50.998;6.250;2022-08-01T07:37:06;20.10;99.90
16666;DHT22;8446;50.998;6.250;2022-08-01T07:39:32;20.30;99.90
16666;DHT22;8446;50.998;6.250;2022-08-01T07:41:59;20.10;99.90
16666;DHT22;8446;50.998;6.250;2022-08-01T07:44:26;20.00;99.90
16666;DHT22;8446;50.998;6.250;2022-08-01T07:46:53;20.00;99.90
16666;DHT22;8446;50.998;6.250;2022-08-01T07:49:20;20.10;99.90
16666;DHT22;8446;50.998;6.250;2022-08-01T07:51:47;20.10;99.90
16666;DHT22;8446;50.998;6.250;2022-08-01T07:54:15;20.00;99.90
16666;DHT22;8446;50.998;6.250;2022-08-01T07:56:42;19.90;99.90
16666;DHT22;8446;50.998;6.250;2022-08-01T07:59:08;19.80;99.90
16666;DHT22;8446;50.998;6.250;2022-08-01T08:01:35;19.70;99.90
16666;DHT22;8446;50.998;6.250;2022-08-01T08:04:02;19.80;99.90
16666;DHT22;8446;50.998;6.250;2022-08-01T08:06:29;19.90;99.90
16666;DHT22;8446;50.998;6.250;2022-08-01T08:08:55;20.10;99.90
16666;DHT22;8446;50.998;6.250;2022-08-01T08:11:24;20.20;99.90
16666;DHT22;8446;50.998;6.250;2022-08-01T08:13:50;20.50;99.90
16666;DHT22;8446;50.998;6.250;2022-08-01T08:16:17;20.80;99.90
16666;DHT22;8446;50.998;6.250;2022-08-01T08:18:44;20.90;99.90
16666;DHT22;8446;50.998;6.250;2022-08-01T08:21:11;20.90;99.90
16666;DHT22;8446;50.998;6.250;2022-08-01T08:23:37;20.60;99.90
16666;DHT22;8446;50.998;6.250;2022-08-01T08:26:21;20.60;99.90
16666;DHT22;8446;50.998;6.250;2022-08-01T08:28:52;20.40;99.90
16666;DHT22;8446;50.998;6.250;2022-08-01T08:31:18;20.50;99.90
16666;DHT22;8446;50.998;6.250;2022-08-01T08:33:45;20.30;99.90
16666;DHT22;8446;50.998;6.250;2022-08-01T08:36:13;20.20;99.90
16666;DHT22;8446;50.998;6.250;2022-08-01T08:38:40;20.10;99.90
16666;DHT22;8446;50.998;6.250;2022-08-01T08:41:07;20.10;99.90
16666;DHT22;8446;50.998;6.250;2022-08-01T08:43:35;20.00;99.90
16666;DHT22;8446;50.998;6.250;2022-08-01T08:46:03;20.10;99.90
16666;DHT22;8446;50.998;6.250;2022-08-01T08:48:31;20.30;99.90
16666;DHT22;8446;50.998;6.250;2022-08-01T08:51:00;20.40;99.90
16666;DHT22;8446;50.998;6.250;2022-08-01T08:53:28;20.40;99.90
16666;DHT22;8446;50.998;6.250;2022-08-01T08:55:57;20.60;99.90
16666;DHT22;8446;50.998;6.250;2022-08-01T08:58:25;20.90;99.90
16666;DHT22;8446;50.998;6.250;2022-08-01T09:00:53;21.00;99.90
16666;DHT22;8446;50.998;6.250;2022-08-01T09:03:21;21.10;99.90
16666;DHT22;8446;50.998;6.250;2022-08-01T09:05:48;21.10;99.90
16666;DHT22;8446;50.998;6.250;2022-08-01T09:08:15;21.20;99.90
16666;DHT22;8446;50.998;6.250;2022-08-01T09:10:42;21.10;99.90
16666;DHT22;8446;50.998;6.250;2022-08-01T09:13:10;21.10;99.90
16666;DHT22;8446;50.998;6.250;2022-08-01T09:15:39;21.10;99.90
16666;DHT22;8446;50.998;6.250;2022-08-01T09:18:06;21.60;99.90
16666;DHT22;8446;50.998;6.250;2022-08-01T09:20:34;21.60;99.90
16666;DHT22;8446;50.998;6.250;2022-08-01T09:23:02;21.50;99.90
16666;DHT22;8446;50.998;6.250;2022-08-01T09:25:29;21.40;99.90
16666;DHT22;8446;50.998;6.250;2022-08-01T09:28:03;21.20;99.90
16666;DHT22;8446;50.998;6.250;2022-08-01T09:30:36;21.20;99.90
16666;DHT22;8446;50.998;6.250;2022-08-01T09:33:05;21.30;99.90
16666;DHT22;8446;50.998;6.250;2022-08-01T09:35:34;21.40;99.90
16666;DHT22;8446;50.998;6.250;2022-08-01T09:38:15;21.60;99.90
16666;DHT22;8446;50.998;6.250;2022-08-01T09:40:46;21.50;99.90
16666;DHT22;8446;50.998;6.250;2022-08-01T09:43:13;21.60;99.90
16666;DHT22;8446;50.998;6.250;2022-08-01T09:45:40;21.80;99.90
16666;DHT22;8446;50.998;6.250;2022-08-01T09:48:08;22.10;99.90
16666;DHT22;8446;50.998;6.250;2022-08-01T09:50:44;22.40;99.90
16666;DHT22;8446;50.998;6.250;2022-08-01T09:53:12;22.20;99.90
16666;DHT22;8446;50.998;6.250;2022-08-01T09:55:40;22.30;99.90
16666;DHT22;8446;50.998;6.250;2022-08-01T09:58:08;22.10;99.90
16666;DHT22;8446;50.998;6.250;2022-08-01T10:00:38;22.40;99.90
16666;DHT22;8446;50.998;6.250;2022-08-01T10:03:19;22.50;99.90
16666;DHT22;8446;50.998;6.250;2022-08-01T10:05:48;22.70;99.90
16666;DHT22;8446;50.998;6.250;2022-08-01T10:08:15;22.70;99.90
16666;DHT22;8446;50.998;6.250;2022-08-01T10:10:46;22.40;99.90
16666;DHT22;8446;50.998;6.250;2022-08-01T10:13:31;22.30;99.90
16666;DHT22;8446;50.998;6.250;2022-08-01T10:15:58;22.20;99.90
16666;DHT22;8446;50.998;6.250;2022-08-01T10:18:26;22.20;99.90
16666;DHT22;8446;50.998;6.250;2022-08-01T10:20:55;22.50;99.90
16666;DHT22;8446;50.998;6.250;2022-08-01T10:23:24;23.20;99.90
16666;DHT22;8446;50.998;6.250;2022-08-01T10:25:53;22.90;99.90
16666;DHT22;8446;50.998;6.250;2022-08-01T10:28:21;23.00;99.90
16666;DHT22;8446;50.998;6.250;2022-08-01T10:30:49;22.90;99.90
16666;DHT22;8446;50.998;6.250;2022-08-01T10:33:17;23.30;99.90
16666;DHT22;8446;50.998;6.250;2022-08-01T10:35:45;23.50;99.90
16666;DHT22;8446;50.998;6.250;2022-08-01T10:38:14;23.20;99.90
16666;DHT22;8446;50.998;6.250;2022-08-01T10:40:42;23.00;99.90
16666;DHT22;8446;50.998;6.250;2022-08-01T10:43:09;23.40;99.90
16666;DHT22;8446;50.998;6.250;2022-08-01T10:45:36;23.50;99.90
16666;DHT22;8446;50.998;6.250;2022-08-01T10:48:14;23.30;99.90
16666;DHT22;8446;50.998;6.250;2022-08-01T10:50:43;23.40;99.90
16666;DHT22;8446;50.998;6.250;2022-08-01T10:53:14;23.80;99.90
16666;DHT22;8446;50.998;6.250;2022-08-01T10:55:49;24.10;99.90
16666;DHT22;8446;50.998;6.250;2022-08-01T10:58:23;23.70;99.90
16666;DHT22;8446;50.998;6.250;2022-08-01T11:01:15;23.70;99.90
16666;DHT22;8446;50.998;6.250;2022-08-01T11:03:42;23.90;99.90
16666;DHT22;8446;50.998;6.250;2022-08-01T11:06:16;23.90;99.90
16666;DHT22;8446;50.998;6.250;2022-08-01T11:08:51;24.00;99.90
16666;DHT22;8446;50.998;6.250;2022-08-01T11:11:18;24.60;99.90
16666;DHT22;8446;50.998;6.250;2022-08-01T11:14:02;24.70;99.90
16666;DHT22;8446;50.998;6.250;2022-08-01T11:16:33;24.70;99.90
16666;DHT22;8446;50.998;6.250;2022-08-01T11:19:01;24.60;99.90
16666;DHT22;8446;50.998;6.250;2022-08-01T11:22:00;24.80;99.90
16666;DHT22;8446;50.998;6.250;2022-08-01T11:24:56;25.20;99.90
16666;DHT22;8446;50.998;6.250;2022-08-01T11:27:25;24.50;99.90
16666;DHT22;8446;50.998;6.250;2022-08-01T11:32:59;24.10;99.90
16666;DHT22;8446;50.998;6.250;2022-08-01T11:35:26;24.70;99.90
16666;DHT22;8446;50.998;6.250;2022-08-01T11:37:54;24.30;99.90
16666;DHT22;8446;50.998;6.250;2022-08-01T11:40:24;23.90;99.90
16666;DHT22;8446;50.998;6.250;2022-08-01T11:43:16;24.10;99.90
16666;DHT22;8446;50.998;6.250;2022-08-01T11:45:47;24.30;99.90
16666;DHT22;8446;50.998;6.250;2022-08-01T11:48:18;24.50;99.90
16666;DHT22;8446;50.998;6.250;2022-08-01T11:50:46;24.40;99.90
16666;DHT22;8446;50.998;6.250;2022-08-01T11:53:13;24.50;99.90
16666;DHT22;8446;50.998;6.250;2022-08-01T11:55:46;24.10;99.90
16666;DHT22;8446;50.998;6.250;2022-08-01T11:58:15;24.40;99.90
16666;DHT22;8446;50.998;6.250;2022-08-01T12:00:50;24.50;99.90
16666;DHT22;8446;50.998;6.250;2022-08-01T12:03:23;24.30;99.90
16666;DHT22;8446;50.998;6.250;2022-08-01T12:05:50;24.40;99.90
16666;DHT22;8446;50.998;6.250;2022-08-01T12:08:24;24.30;99.90
16666;DHT22;8446;50.998;6.250;2022-08-01T12:10:53;25.60;99.90
16666;DHT22;8446;50.998;6.250;2022-08-01T12:13:20;26.10;99.90
16666;DHT22;8446;50.998;6.250;2022-08-01T12:15:48;25.50;99.90
16666;DHT22;8446;50.998;6.250;2022-08-01T12:18:16;25.50;99.90
16666;DHT22;8446;50.998;6.250;2022-08-01T12:20:45;25.10;99.90
16666;DHT22;8446;50.998;6.250;2022-08-01T12:23:14;25.20;99.90
16666;DHT22;8446;50.998;6.250;2022-08-01T12:25:42;25.30;99.90
16666;DHT22;8446;50.998;6.250;2022-08-01T12:28:11;25.00;99.90
16666;DHT22;8446;50.998;6.250;2022-08-01T12:30:39;25.40;99.90
16666;DHT22;8446;50.998;6.250;2022-08-01T12:33:07;25.20;99.90
16666;DHT22;8446;50.998;6.250;2022-08-01T12:35:36;25.10;99.90
16666;DHT22;8446;50.998;6.250;2022-08-01T12:38:05;25.40;99.90
16666;DHT22;8446;50.998;6.250;2022-08-01T12:40:33;25.50;99.90
16666;DHT22;8446;50.998;6.250;2022-08-01T12:43:02;25.20;99.90
16666;DHT22;8446;50.998;6.250;2022-08-01T12:45:40;25.60;99.90
16666;DHT22;8446;50.998;6.250;2022-08-01T12:48:09;25.50;99.90
16666;DHT22;8446;50.998;6.250;2022-08-01T12:50:38;25.40;99.90
16666;DHT22;8446;50.998;6.250;2022-08-01T12:53:06;25.20;99.90
16666;DHT22;8446;50.998;6.250;2022-08-01T12:55:43;25.60;99.90
16666;DHT22;8446;50.998;6.250;2022-08-01T12:58:12;25.60;99.90
16666;DHT22;8446;50.998;6.250;2022-08-01T13:00:43;25.60;99.90
16666;DHT22;8446;50.998;6.250;2022-08-01T13:03:11;25.80;99.90
16666;DHT22;8446;50.998;6.250;2022-08-01T13:05:43;25.80;99.90
16666;DHT22;8446;50.998;6.250;2022-08-01T13:08:11;25.40;99.90
16666;DHT22;8446;50.998;6.250;2022-08-01T13:10:39;25.70;99.90
16666;DHT22;8446;50.998;6.250;2022-08-01T13:13:07;25.50;99.90
16666;DHT22;8446;50.998;6.250;2022-08-01T13:15:36;25.40;99.90
16666;DHT22;8446;50.998;6.250;2022-08-01T13:18:24;25.10;99.90
16666;DHT22;8446;50.998;6.250;2022-08-01T13:21:08;25.70;99.90
16666;DHT22;8446;50.998;6.250;2022-08-01T13:23:35;25.70;99.90
16666;DHT22;8446;50.998;6.250;2022-08-01T13:26:02;25.70;99.90
16666;DHT22;8446;50.998;6.250;2022-08-01T13:28:29;25.70;99.90
16666;DHT22;8446;50.998;6.250;2022-08-01T13:30:59;25.60;99.90
16666;DHT22;8446;50.998;6.250;2022-08-01T13:33:38;25.50;99.90
16666;DHT22;8446;50.998;6.250;2022-08-01T13:36:06;25.10;99.90
16666;DHT22;8446;50.998;6.250;2022-08-01T13:38:32;25.10;99.90
16666;DHT22;8446;50.998;6.250;2022-08-01T13:41:17;25.40;99.90
16666;DHT22;8446;50.998;6.250;2022-08-01T13:43:44;25.30;99.90
16666;DHT22;8446;50.998;6.250;2022-08-01T13:46:10;25.20;99.90
16666;DHT22;8446;50.998;6.250;2022-08-01T13:48:39;25.10;99.90
16666;DHT22;8446;50.998;6.250;2022-08-01T13:51:05;25.20;99.90
16666;DHT22;8446;50.998;6.250;2022-08-01T13:53:33;24.90;99.90
16666;DHT22;8446;50.998;6.250;2022-08-01T13:55:59;24.70;99.90
16666;DHT22;8446;50.998;6.250;2022-08-01T13:58:26;25.00;99.90
16666;DHT22;8446;50.998;6.250;2022-08-01T14:00:53;25.30;99.90
16666;DHT22;8446;50.998;6.250;2022-08-01T14:03:21;25.40;99.90
16666;DHT22;8446;50.998;6.250;2022-08-01T14:05:49;25.40;99.90
16666;DHT22;8446;50.998;6.250;2022-08-01T14:08:16;25.40;99.90
16666;DHT22;8446;50.998;6.250;2022-08-01T14:10:43;25.60;99.90
16666;DHT22;8446;50.998;6.250;2022-08-01T14:13:10;25.40;99.90
16666;DHT22;8446;50.998;6.250;2022-08-01T14:15:37;25.30;99.90
16666;DHT22;8446;50.998;6.250;2022-08-01T14:18:04;25.00;99.90
16666;DHT22;8446;50.998;6.250;2022-08-01T14:20:31;25.40;99.90
16666;DHT22;8446;50.998;6.250;2022-08-01T14:23:00;25.50;99.90
16666;DHT22;8446;50.998;6.250;2022-08-01T14:25:26;25.40;99.90
16666;DHT22;8446;50.998;6.250;2022-08-01T14:27:53;25.60;99.90
16666;DHT22;8446;50.998;6.250;2022-08-01T14:30:20;25.30;99.90
16666;DHT22;8446;50.998;6.250;2022-08-01T14:32:47;25.20;99.90
16666;DHT22;8446;50.998;6.250;2022-08-01T14:35:14;25.50;99.90
16666;DHT22;8446;50.998;6.250;2022-08-01T14:37:41;25.60;99.90
16666;DHT22;8446;50.998;6.250;2022-08-01T14:40:09;25.60;99.90
16666;DHT22;8446;50.998;6.250;2022-08-01T14:42:38;26.20;99.90
16666;DHT22;8446;50.998;6.250;2022-08-01T14:45:06;25.90;99.90
16666;DHT22;8446;50.998;6.250;2022-08-01T14:47:35;25.50;99.90
16666;DHT22;8446;50.998;6.250;2022-08-01T14:50:03;25.40;99.90
16666;DHT22;8446;50.998;6.250;2022-08-01T14:52:30;25.70;99.90
16666;DHT22;8446;50.998;6.250;2022-08-01T14:54:57;26.20;99.90
16666;DHT22;8446;50.998;6.250;2022-08-01T14:57:25;25.80;99.90
16666;DHT22;8446;50.998;6.250;2022-08-01T14:59:52;25.70;99.90
16666;DHT22;8446;50.998;6.250;2022-08-01T15:02:19;26.00;99.90
16666;DHT22;8446;50.998;6.250;2022-08-01T15:04:47;25.60;99.90
16666;DHT22;8446;50.998;6.250;2022-08-01T15:07:15;25.10;99.90
16666;DHT22;8446;50.998;6.250;2022-08-01T15:09:43;25.20;99.90
16666;DHT22;8446;50.998;6.250;2022-08-01T15:12:11;25.20;99.90
16666;DHT22;8446;50.998;6.250;2022-08-01T15:14:40;25.50;99.90
16666;DHT22;8446;50.998;6.250;2022-08-01T15:17:16;25.10;99.90
16666;DHT22;8446;50.998;6.250;2022-08-01T15:19:43;25.20;99.90
16666;DHT22;8446;50.998;6.250;2022-08-01T15:22:12;25.50;99.90
16666;DHT22;8446;50.998;6.250;2022-08-01T15:24:39;26.00;99.90
16666;DHT22;8446;50.998;6.250;2022-08-01T15:27:06;26.50;99.90
16666;DHT22;8446;50.998;6.250;2022-08-01T15:29:33;26.80;99.90
16666;DHT22;8446;50.998;6.250;2022-08-01T15:32:01;26.30;99.90
16666;DHT22;8446;50.998;6.250;2022-08-01T15:34:29;25.70;99.90
16666;DHT22;8446;50.998;6.250;2022-08-01T15:36:56;25.50;99.90
16666;DHT22;8446;50.998;6.250;2022-08-01T15:39:23;25.40;99.90
16666;DHT22;8446;50.998;6.250;2022-08-01T15:41:50;26.10;99.90
16666;DHT22;8446;50.998;6.250;2022-08-01T15:44:17;26.20;99.90
16666;DHT22;8446;50.998;6.250;2022-08-01T15:46:47;26.20;99.90
16666;DHT22;8446;50.998;6.250;2022-08-01T15:49:15;26.80;99.90
16666;DHT22;8446;50.998;6.250;2022-08-01T15:51:42;26.40;99.90
16666;DHT22;8446;50.998;6.250;2022-08-01T15:54:11;25.90;99.90
16666;DHT22;8446;50.998;6.250;2022-08-01T15:56:38;25.70;99.90
16666;DHT22;8446;50.998;6.250;2022-08-01T15:59:05;26.00;99.90